Time;durP1;ratioP1;P1;durP2;ratioP2;P2;SDS_P1;SDS_P2;PMS_P1;PMS_P2;Temp;Humidity;BMP_temperature;BMP_pressure;BME280_temperature;BME280_humidity;BME280_pressure;Samples;Min_cycle;Max_cycle;Signal;HPM_P1;HPM_P2
2021/07/18 00:01:05;;;;;;;0.40;0.40;;;;;;;21.50;59.13;102635.28;5055207;28;20029;-92
2021/07/18 00:03:31;;;;;;;0.00;0.00;;;;;;;21.46;59.78;102636.34;5054646;28;20033;-93
2021/07/18 00:05:58;;;;;;;0.73;0.73;;;;;;;21.45;59.88;102638.16;5055375;28;20033;-92
2021/07/18 00:08:24;;;;;;;0.10;0.10;;;;;;;21.44;59.08;102640.91;5055014;28;20103;-91
2021/07/18 00:10:52;;;;;;;0.10;0.10;;;;;;;21.42;59.90;102640.06;5055139;28;20033;-91
2021/07/18 00:13:22;;;;;;;1.08;0.55;;;;;;;21.45;59.94;102642.66;5054796;28;20025;-92
2021/07/18 00:15:49;;;;;;;0.45;0.32;;;;;;;21.38;60.30;102638.44;5054735;28;20060;-92
2021/07/18 00:18:16;;;;;;;0.10;0.10;;;;;;;21.38;60.96;102638.44;5054878;28;20028;-91
2021/07/18 00:20:42;;;;;;;0.00;0.00;;;;;;;21.37;59.91;102629.47;5057017;28;20396;-91
2021/07/18 00:23:09;;;;;;;0.10;0.10;;;;;;;21.39;60.15;102629.41;5056251;28;20119;-91
2021/07/18 00:25:36;;;;;;;0.03;0.03;;;;;;;21.37;60.02;102623.19;5054820;28;20025;-92
2021/07/18 00:28:03;;;;;;;0.00;0.00;;;;;;;21.36;59.67;102619.63;5054448;28;20064;-92
2021/07/18 00:30:30;;;;;;;0.10;0.10;;;;;;;21.34;59.88;102616.97;5054665;28;20440;-91
2021/07/18 00:32:57;;;;;;;2.28;2.10;;;;;;;21.33;60.03;102612.53;5054708;28;20029;-93
2021/07/18 00:35:23;;;;;;;0.10;0.10;;;;;;;21.32;60.07;102615.25;5054500;28;20026;-91
2021/07/18 00:37:50;;;;;;;0.00;0.00;;;;;;;21.32;60.22;102621.56;5054407;28;20025;-91
2021/07/18 00:40:16;;;;;;;0.10;0.10;;;;;;;21.32;60.34;102618.84;5054038;28;20106;-93
2021/07/18 00:42:43;;;;;;;0.00;0.00;;;;;;;21.34;59.90;102613.41;5054194;28;20141;-90
2021/07/18 00:45:10;;;;;;;0.00;0.00;;;;;;;21.32;60.99;102613.47;5054330;28;20086;-91
2021/07/18 00:47:39;;;;;;;1.77;0.80;;;;;;;21.29;61.01;102618.97;5054348;28;20095;-92
2021/07/18 00:50:09;;;;;;;0.00;0.00;;;;;;;21.28;60.37;102609.13;5054405;28;20048;-92
2021/07/18 00:52:36;;;;;;;0.10;0.10;;;;;;;21.25;59.58;102614.63;5054218;28;20464;-92
2021/07/18 00:55:04;;;;;;;0.10;0.10;;;;;;;21.26;60.85;102616.38;5054072;28;20032;-92
2021/07/18 00:57:32;;;;;;;0.40;0.40;;;;;;;21.26;60.20;102611.00;5053861;28;20033;-92
2021/07/18 01:00:00;;;;;;;0.10;0.10;;;;;;;21.22;60.78;102614.75;5054315;28;20037;-91
2021/07/18 01:02:27;;;;;;;0.00;0.00;;;;;;;21.23;60.25;102616.50;5054086;28;20534;-92
2021/07/18 01:04:54;;;;;;;0.22;0.22;;;;;;;21.22;60.42;102614.75;5054217;28;20120;-90
2021/07/18 01:07:20;;;;;;;0.00;0.00;;;;;;;21.19;61.15;102614.84;5054021;28;20033;-92
2021/07/18 01:09:47;;;;;;;0.13;0.13;;;;;;;21.19;60.41;102617.53;5054113;28;20032;-92
2021/07/18 01:12:14;;;;;;;0.25;0.22;;;;;;;21.19;60.48;102619.38;5054110;28;20467;-92
2021/07/18 01:14:41;;;;;;;0.10;0.10;;;;;;;21.16;61.02;102613.16;5053841;28;20040;-94
2021/07/18 01:17:08;;;;;;;0.10;0.10;;;;;;;21.15;60.45;102607.81;5054229;28;20029;-93
2021/07/18 01:19:34;;;;;;;0.00;0.00;;;;;;;21.10;61.12;102605.28;5053750;28;20029;-92
2021/07/18 01:22:03;;;;;;;0.30;0.30;;;;;;;21.12;60.60;102611.50;5053469;28;20043;-93
2021/07/18 01:24:31;;;;;;;0.08;0.08;;;;;;;21.08;60.71;102607.16;5053786;28;20100;-92
2021/07/18 01:26:58;;;;;;;0.00;0.00;;;;;;;21.07;60.86;102596.44;5053868;28;20025;-92
2021/07/18 01:29:27;;;;;;;0.10;0.10;;;;;;;21.06;60.82;102597.34;5053712;28;20026;-94
2021/07/18 01:31:54;;;;;;;0.00;0.00;;;;;;;20.99;60.99;102597.59;5053697;28;20120;-92
2021/07/18 01:34:21;;;;;;;0.00;0.00;;;;;;;20.97;61.09;102598.56;5053595;28;20490;-92
2021/07/18 01:36:47;;;;;;;0.00;0.00;;;;;;;20.94;60.89;102588.78;5053401;28;20025;-92
2021/07/18 01:39:14;;;;;;;0.00;0.00;;;;;;;20.94;60.81;102594.19;5053904;28;20426;-92
2021/07/18 01:41:41;;;;;;;0.00;0.00;;;;;;;20.91;61.65;102594.31;5053493;28;20387;-93
2021/07/18 01:44:08;;;;;;;0.10;0.10;;;;;;;20.89;60.82;102596.16;5053875;28;20460;-93
2021/07/18 01:46:36;;;;;;;0.20;0.20;;;;;;;20.88;61.68;102599.78;5053440;28;20029;-92
2021/07/18 01:49:06;;;;;;;0.10;0.10;;;;;;;20.90;61.18;102597.94;5053298;28;20103;-92
2021/07/18 01:51:34;;;;;;;0.10;0.10;;;;;;;20.86;61.52;102590.91;5053084;28;20094;-91
2021/07/18 01:54:02;;;;;;;0.10;0.10;;;;;;;20.86;61.80;102596.28;5056602;28;20036;-92
2021/07/18 01:56:29;;;;;;;0.20;0.20;;;;;;;20.83;61.95;102591.00;5053184;28;20025;-92
2021/07/18 01:58:56;;;;;;;0.10;0.10;;;;;;;20.84;62.25;102592.75;5053574;28;20040;-92
2021/07/18 02:01:28;;;;;;;0.00;0.00;;;;;;;20.88;61.69;102599.78;5052818;28;20055;-93
2021/07/18 02:03:56;;;;;;;0.55;0.55;;;;;;;20.86;61.87;102590.91;5052943;28;20036;-92
2021/07/18 02:06:24;;;;;;;0.00;0.00;;;;;;;20.87;61.79;102589.06;5053279;28;20384;-92
2021/07/18 02:08:53;;;;;;;0.00;0.00;;;;;;;20.89;61.04;102590.78;5054336;28;20033;-92
2021/07/18 02:11:21;;;;;;;0.00;0.00;;;;;;;20.88;61.66;102588.16;5059126;28;20048;-92
2021/07/18 02:13:50;;;;;;;0.10;0.10;;;;;;;20.86;61.81;102588.22;5056025;28;20033;-92
2021/07/18 02:16:17;;;;;;;1.17;0.63;;;;;;;20.85;61.31;102589.13;5053011;28;20021;-92
2021/07/18 02:18:45;;;;;;;0.10;0.10;;;;;;;20.84;61.87;102587.38;5054015;28;20033;-93
2021/07/18 02:21:11;;;;;;;0.00;0.00;;;;;;;20.83;62.41;102582.91;5053338;28;20044;-92
2021/07/18 02:23:38;;;;;;;0.10;0.10;;;;;;;20.82;61.54;102590.13;5053041;28;20029;-92
2021/07/18 02:26:05;;;;;;;0.00;0.00;;;;;;;20.80;61.24;102585.72;5054041;28;20476;-92
2021/07/18 02:28:32;;;;;;;0.35;0.35;;;;;;;20.75;61.80;102590.38;5052962;28;20025;-92
2021/07/18 02:31:03;;;;;;;0.00;0.00;;;;;;;20.72;62.62;102587.81;5053428;28;20025;-94
2021/07/18 02:33:30;;;;;;;0.20;0.20;;;;;;;20.73;61.63;102594.94;5053574;28;20029;-92
2021/07/18 02:35:58;;;;;;;0.10;0.10;;;;;;;20.69;62.27;102595.00;5052987;28;20021;-93
2021/07/18 02:38:25;;;;;;;0.10;0.10;;;;;;;20.69;61.52;102584.25;5053361;28;20529;-93
2021/07/18 02:40:52;;;;;;;0.15;0.15;;;;;;;20.67;62.14;102591.50;5052934;28;20116;-93
2021/07/18 02:43:19;;;;;;;0.10;0.10;;;;;;;20.65;62.14;102587.97;5053351;28;20096;-93
2021/07/18 02:45:45;;;;;;;0.10;0.10;;;;;;;20.62;62.64;102582.72;5054865;28;20021;-93
2021/07/18 02:48:11;;;;;;;0.08;0.08;;;;;;;20.61;62.77;102586.34;5059816;28;20060;-92
2021/07/18 02:50:38;;;;;;;0.00;0.00;;;;;;;20.62;62.34;102582.72;5057763;28;20040;-92
2021/07/18 02:53:04;;;;;;;0.00;0.00;;;;;;;20.60;62.06;102584.56;5056366;28;20112;-92
2021/07/18 02:55:31;;;;;;;0.10;0.10;;;;;;;20.58;61.93;102578.34;5056424;28;20372;-92
2021/07/18 02:57:58;;;;;;;0.10;0.10;;;;;;;20.59;62.29;102582.81;5056499;28;20029;-93
2021/07/18 03:00:26;;;;;;;0.40;0.40;;;;;;;20.57;62.80;102579.28;5056237;28;20053;-93
2021/07/18 03:02:53;;;;;;;0.10;0.10;;;;;;;20.58;62.33;102578.34;5056092;28;20032;-94
2021/07/18 03:05:19;;;;;;;0.05;0.05;;;;;;;20.54;62.67;102579.41;5056051;28;20021;-93
2021/07/18 03:07:47;;;;;;;0.00;0.00;;;;;;;20.52;62.78;102578.56;5056337;28;20059;-92
2021/07/18 03:10:16;;;;;;;0.10;0.10;;;;;;;20.54;62.47;102582.09;5056015;28;20495;-91
2021/07/18 03:12:43;;;;;;;0.10;0.10;;;;;;;20.52;62.63;102575.88;5055666;28;20116;-92
2021/07/18 03:15:12;;;;;;;0.08;0.08;;;;;;;20.49;63.14;102576.00;5056145;28;20035;-95
2021/07/18 03:17:39;;;;;;;0.20;0.20;;;;;;;20.50;62.40;102572.38;5055994;28;20035;-93
2021/07/18 03:20:08;;;;;;;0.03;0.03;;;;;;;20.50;62.17;102572.38;5056270;28;20120;-93
2021/07/18 03:22:35;;;;;;;0.00;0.00;;;;;;;20.50;62.77;102572.38;5055332;28;20464;-92
2021/07/18 03:25:03;;;;;;;0.15;0.15;;;;;;;20.48;62.74;102574.22;5055856;28;20472;-92
2021/07/18 03:27:30;;;;;;;0.17;0.17;;;;;;;20.48;63.05;102577.78;5055721;28;20029;-92
2021/07/18 03:29:56;;;;;;;0.35;0.35;;;;;;;20.50;62.41;102569.69;5055658;28;20040;-90
2021/07/18 03:32:22;;;;;;;0.10;0.10;;;;;;;20.51;62.15;102569.63;5055766;28;20115;-93
2021/07/18 03:34:49;;;;;;;0.15;0.15;;;;;;;20.48;62.59;102571.53;5055880;28;20545;-92
2021/07/18 03:37:15;;;;;;;0.30;0.30;;;;;;;20.47;62.83;102569.75;5055558;28;20384;-93
2021/07/18 03:39:42;;;;;;;0.00;0.00;;;;;;;20.47;63.12;102564.38;5056201;28;20051;-92
2021/07/18 03:42:09;;;;;;;0.00;0.00;;;;;;;20.47;62.39;102570.66;5060057;28;20535;-92
2021/07/18 03:44:36;;;;;;;0.30;0.30;;;;;;;20.48;62.51;102563.44;5058196;28;20067;-92
2021/07/18 03:47:03;;;;;;;0.00;0.00;;;;;;;20.48;62.51;102558.06;5056790;28;20021;-92
2021/07/18 03:49:30;;;;;;;0.00;0.00;;;;;;;20.47;62.50;102561.69;5055609;28;20029;-93
2021/07/18 03:51:56;;;;;;;0.00;0.00;;;;;;;20.48;62.28;102563.44;5054858;28;20033;-92
2021/07/18 03:54:23;;;;;;;0.00;0.00;;;;;;;20.47;61.99;102561.69;5055041;28;20040;-92
2021/07/18 03:56:49;;;;;;;0.10;0.10;;;;;;;20.45;62.01;102552.78;5055282;28;20111;-93
2021/07/18 03:59:15;;;;;;;0.10;0.10;;;;;;;20.44;62.50;102562.69;5054885;28;20050;-92
2021/07/18 04:01:42;;;;;;;0.10;0.10;;;;;;;20.46;62.92;102559.94;5055469;28;20029;-92
2021/07/18 04:04:08;;;;;;;0.10;0.10;;;;;;;20.48;62.19;102564.31;5055673;28;20083;-93
2021/07/18 04:06:34;;;;;;;0.10;0.10;;;;;;;20.49;62.60;102555.31;5057722;28;20036;-92
2021/07/18 04:09:01;;;;;;;0.10;0.10;;;;;;;20.52;62.40;102565.09;5058768;28;20033;-92
2021/07/18 04:11:27;;;;;;;0.10;0.10;;;;;;;20.52;61.80;102565.09;5056051;28;20079;-94
2021/07/18 04:13:54;;;;;;;0.10;0.10;;;;;;;20.52;62.01;102571.38;5055522;28;20548;-92
2021/07/18 04:16:20;;;;;;;0.00;0.00;;;;;;;20.51;62.57;102566.03;5056104;28;20031;-92
2021/07/18 04:18:46;;;;;;;0.00;0.00;;;;;;;20.50;62.38;102566.97;5055446;28;20053;-92
2021/07/18 04:21:19;;;;;;;0.10;0.10;;;;;;;20.53;61.96;102566.88;5054761;28;20104;-92
2021/07/18 04:23:46;;;;;;;0.20;0.20;;;;;;;20.52;62.18;102565.09;5054206;28;20057;-92
2021/07/18 04:26:12;;;;;;;0.00;0.00;;;;;;;20.52;62.53;102565.09;5054582;28;20028;-91
2021/07/18 04:28:38;;;;;;;0.03;0.03;;;;;;;20.53;62.11;102561.47;5054740;28;20029;-92
2021/07/18 04:31:05;;;;;;;0.00;0.00;;;;;;;20.55;61.94;102567.69;5055339;28;20061;-91
2021/07/18 04:33:31;;;;;;;0.30;0.30;;;;;;;20.55;62.13;102567.69;5054267;28;20531;-92
2021/07/18 04:35:57;;;;;;;0.08;0.08;;;;;;;20.55;62.65;102570.41;5054440;28;20029;-92
2021/07/18 04:38:24;;;;;;;0.32;0.32;;;;;;;20.56;62.72;102566.78;5054126;28;20021;-92
2021/07/18 04:40:50;;;;;;;0.10;0.10;;;;;;;20.61;62.71;102564.78;5054393;28;20040;-92
2021/07/18 04:43:16;;;;;;;0.10;0.10;;;;;;;20.62;63.17;102566.56;5054479;28;20064;-92
2021/07/18 04:45:43;;;;;;;0.10;0.10;;;;;;;20.66;62.18;102573.59;5054433;28;20035;-92
2021/07/18 04:48:10;;;;;;;0.15;0.15;;;;;;;20.63;62.38;102568.28;5053903;28;20475;-92
2021/07/18 04:50:36;;;;;;;0.38;0.38;;;;;;;20.71;62.44;102577.91;5054082;28;20025;-92
2021/07/18 04:53:03;;;;;;;0.10;0.10;;;;;;;20.73;62.39;102574.28;5053914;28;20017;-92
2021/07/18 04:55:29;;;;;;;0.00;0.00;;;;;;;20.76;62.91;102578.66;5054314;28;20025;-92
2021/07/18 04:57:55;;;;;;;0.10;0.10;;;;;;;20.79;62.19;102578.56;5054294;28;20051;-91
2021/07/18 05:00:23;;;;;;;0.10;0.10;;;;;;;20.80;62.36;102580.34;5053612;28;20028;-91
2021/07/18 05:02:50;;;;;;;0.00;0.00;;;;;;;20.83;62.40;102582.91;5054120;28;20385;-92
2021/07/18 05:05:18;;;;;;;0.10;0.10;;;;;;;20.84;62.57;102581.97;5053428;28;20025;-92
2021/07/18 05:10:28;;;;;;;0.40;0.30;;;;;;;20.80;62.85;102570.44;5091095;27;20461;-93
2021/07/18 05:12:57;;;;;;;0.10;0.10;;;;;;;20.85;62.83;102573.84;5057480;28;20115;-93
2021/07/18 05:15:27;;;;;;;0.10;0.10;;;;;;;20.92;62.37;102566.44;5050309;28;20444;-93
2021/07/18 05:17:55;;;;;;;0.20;0.20;;;;;;;20.95;62.46;102568.13;5050562;28;20124;-93
2021/07/18 05:20:22;;;;;;;0.10;0.10;;;;;;;21.01;62.13;102559.81;5050958;28;20029;-94
2021/07/18 05:22:50;;;;;;;0.22;0.22;;;;;;;21.08;62.07;102564.03;5050834;28;20112;-93
2021/07/18 05:25:16;;;;;;;0.10;0.10;;;;;;;21.14;61.90;102565.63;5050311;28;20025;-92
2021/07/18 05:27:43;;;;;;;0.13;0.13;;;;;;;21.14;62.00;102569.19;5050558;28;20025;-93
2021/07/18 05:30:12;;;;;;;1.65;0.35;;;;;;;21.19;62.20;102569.03;5050039;28;20037;-93
2021/07/18 05:32:39;;;;;;;0.20;0.20;;;;;;;21.23;62.12;102567.97;5051089;28;20030;-93
2021/07/18 05:35:07;;;;;;;0.05;0.05;;;;;;;21.32;61.75;102567.63;5050431;28;20029;-93
2021/07/18 05:37:33;;;;;;;0.80;0.80;;;;;;;21.35;61.53;102566.63;5050716;28;20560;-94
2021/07/18 05:40:00;;;;;;;0.10;0.10;;;;;;;21.39;61.78;102570.97;5050187;28;20061;-93
2021/07/18 05:42:26;;;;;;;0.10;0.10;;;;;;;21.46;61.36;102572.50;5050305;28;20168;-94
2021/07/18 05:44:52;;;;;;;0.10;0.10;;;;;;;21.48;61.15;102570.63;5049986;28;20029;-93
2021/07/18 05:47:19;;;;;;;0.08;0.08;;;;;;;21.54;61.08;102577.59;5050277;28;20043;-93
2021/07/18 05:49:45;;;;;;;0.00;0.00;;;;;;;21.50;61.30;102566.03;5049698;28;20116;-93
2021/07/18 05:52:11;;;;;;;0.00;0.00;;;;;;;21.61;60.90;102565.66;5049960;28;20025;-93
2021/07/18 05:54:38;;;;;;;0.00;0.00;;;;;;;21.65;60.97;102564.59;5050313;28;20026;-93
2021/07/18 05:57:05;;;;;;;1.95;1.10;;;;;;;21.73;60.71;102560.72;5050016;28;20029;-93
2021/07/18 05:59:31;;;;;;;0.10;0.10;;;;;;;21.72;60.72;102565.25;5049631;28;20048;-93
2021/07/18 06:01:57;;;;;;;0.10;0.10;;;;;;;21.74;60.70;102570.56;5049448;28;20388;-94
2021/07/18 06:04:24;;;;;;;0.10;0.10;;;;;;;21.88;60.52;102570.91;5049739;28;20029;-93
2021/07/18 06:06:51;;;;;;;0.10;0.10;;;;;;;21.88;60.15;102573.59;5050124;28;20029;-93
2021/07/18 06:09:18;;;;;;;0.43;0.43;;;;;;;21.85;60.61;102575.53;5049394;28;20033;-93
2021/07/18 06:11:44;;;;;;;1.17;0.60;;;;;;;21.93;60.24;102574.28;5049477;28;20547;-94
2021/07/18 06:14:11;;;;;;;0.00;0.00;;;;;;;21.98;60.10;102577.69;5050027;28;20423;-93
2021/07/18 06:16:37;;;;;;;0.10;0.10;;;;;;;22.00;60.16;102574.91;5049813;28;20107;-92
2021/07/18 06:19:03;;;;;;;0.00;0.00;;;;;;;22.10;60.04;102573.56;5049891;28;20021;-92
2021/07/18 06:21:30;;;;;;;0.10;0.10;;;;;;;22.13;59.71;102569.88;5037918;28;20476;-93
2021/07/18 06:23:56;;;;;;;0.08;0.08;;;;;;;22.17;59.63;102570.63;5036303;28;20036;-94
2021/07/18 06:26:22;;;;;;;0.00;0.00;;;;;;;22.14;59.58;102572.53;5036061;28;20423;-93
2021/07/18 06:28:49;;;;;;;0.08;0.08;;;;;;;22.26;59.57;102560.31;5036234;28;20131;-93
2021/07/18 06:31:15;;;;;;;0.10;0.10;;;;;;;22.27;59.78;102562.09;5036095;28;20034;-92
2021/07/18 06:33:43;;;;;;;0.00;0.00;;;;;;;22.30;59.67;102564.63;5035887;28;20032;-93
2021/07/18 06:36:10;;;;;;;0.10;0.10;;;;;;;22.38;59.46;102571.56;5035998;28;20034;-94
2021/07/18 06:38:38;;;;;;;0.43;0.43;;;;;;;22.48;59.35;102569.38;5035809;28;20507;-92
2021/07/18 06:41:04;;;;;;;0.28;0.28;;;;;;;22.54;59.46;102575.41;5035863;28;20037;-94
2021/07/18 06:43:33;;;;;;;0.13;0.13;;;;;;;22.55;59.14;102574.44;5035573;28;20026;-94
2021/07/18 06:45:59;;;;;;;0.38;0.38;;;;;;;22.58;58.94;102571.63;5036182;28;20361;-95
2021/07/18 06:48:26;;;;;;;0.10;0.10;;;;;;;22.76;58.39;102569.91;5035650;28;20026;-93
2021/07/18 06:50:52;;;;;;;0.00;0.00;;;;;;;22.76;58.56;102567.22;5035602;28;20041;-93
2021/07/18 06:53:18;;;;;;;0.47;0.47;;;;;;;22.87;58.38;102565.88;5035585;28;20026;-94
2021/07/18 06:55:45;;;;;;;0.35;0.35;;;;;;;22.91;58.27;102560.25;5035429;28;20035;-94
2021/07/18 06:58:11;;;;;;;0.17;0.17;;;;;;;22.97;57.96;102571.72;5035989;28;20108;-93
2021/07/18 07:00:37;;;;;;;0.10;0.10;;;;;;;23.07;57.97;102573.06;5036400;28;20120;-94
2021/07/18 07:03:03;;;;;;;0.10;0.10;;;;;;;23.16;57.81;102575.38;5037867;28;20113;-92
2021/07/18 07:05:30;;;;;;;0.10;0.10;;;;;;;23.21;57.69;102581.44;5035320;28;20028;-93
2021/07/18 07:07:56;;;;;;;0.00;0.00;;;;;;;23.27;57.49;102578.47;5035899;28;20025;-93
2021/07/18 07:10:22;;;;;;;0.00;0.00;;;;;;;23.34;57.16;102575.47;5035148;28;20035;-93
2021/07/18 07:12:49;;;;;;;0.10;0.10;;;;;;;23.39;57.20;102577.03;5035111;28;20026;-94
2021/07/18 07:15:16;;;;;;;0.10;0.10;;;;;;;23.46;56.99;102574.03;5035352;28;20049;-94
2021/07/18 07:17:44;;;;;;;0.10;0.10;;;;;;;23.51;56.88;102567.44;5035540;28;20060;-93
2021/07/18 07:20:17;;;;;;;0.20;0.20;;;;;;;23.62;56.66;102574.19;5035032;28;20041;-94
2021/07/18 07:22:44;;;;;;;0.10;0.10;;;;;;;23.57;56.53;102577.97;5034600;28;20087;-94
2021/07/18 07:25:13;;;;;;;0.17;0.17;;;;;;;23.65;55.97;102569.50;5035171;28;20040;-93
2021/07/18 07:27:48;;;;;;;0.10;0.10;;;;;;;23.77;56.00;102583.41;5035180;28;20068;-94
2021/07/18 07:30:25;;;;;;;;;;;;;;;;;;;;;
2021/07/18 07:33:05;;;;;;;0.10;0.10;;;;;;;23.93;56.01;102572.75;5032106;28;20496;-93
2021/07/18 07:35:31;;;;;;;0.03;0.03;;;;;;;24.03;55.91;102565.91;5034761;28;20441;-94
2021/07/18 07:37:58;;;;;;;0.25;0.25;;;;;;;24.15;55.94;102570.72;5034575;28;20388;-94
2021/07/18 07:40:27;;;;;;;3.30;1.30;;;;;;;24.20;55.02;102571.34;5034179;28;20566;-93
2021/07/18 07:42:53;;;;;;;0.10;0.10;;;;;;;24.26;55.26;102569.28;5034485;28;20033;-94
2021/07/18 07:45:20;;;;;;;0.10;0.10;;;;;;;24.33;54.94;102563.47;5035112;28;20079;-94
2021/07/18 07:47:49;;;;;;;0.30;0.30;;;;;;;24.28;54.91;102561.97;5034360;28;20078;-95
2021/07/18 07:50:15;;;;;;;0.43;0.43;;;;;;;24.46;54.81;102569.16;5034557;28;20548;-93
2021/07/18 07:52:45;;;;;;;0.28;0.28;;;;;;;24.55;54.40;102570.50;5034474;28;20120;-94
2021/07/18 07:55:17;;;;;;;0.03;0.03;;;;;;;24.60;54.01;102568.44;5034950;28;20055;-94
2021/07/18 07:57:45;;;;;;;0.10;0.10;;;;;;;24.65;53.84;102568.19;5034603;28;20033;-94
2021/07/18 08:00:15;;;;;;;0.10;0.10;;;;;;;24.68;53.39;102565.34;5034226;28;20025;-94
2021/07/18 08:02:48;;;;;;;0.10;0.10;;;;;;;24.74;53.43;102569.56;5034420;28;20037;-94
2021/07/18 08:05:15;;;;;;;0.20;0.20;;;;;;;24.67;52.10;102572.59;5034351;28;20029;-94
2021/07/18 08:07:41;;;;;;;0.10;0.10;;;;;;;24.84;51.69;102570.84;5034443;28;20022;-94
2021/07/18 08:10:19;;;;;;;0.10;0.10;;;;;;;24.90;51.94;102569.59;5033901;28;20037;-94
2021/07/18 08:12:51;;;;;;;0.55;0.55;;;;;;;25.07;51.88;102561.44;5034323;28;20431;-94
2021/07/18 08:15:20;;;;;;;0.10;0.10;;;;;;;25.04;50.27;102562.47;5033997;28;20468;-94
2021/07/18 08:17:57;;;;;;;0.20;0.20;;;;;;;25.23;50.59;102572.31;5034161;28;20041;-94
2021/07/18 08:20:28;;;;;;;0.88;0.80;;;;;;;25.30;51.37;102562.91;5034221;28;20434;-95
2021/07/18 08:22:57;;;;;;;0.25;0.25;;;;;;;25.52;50.96;102559.91;5033828;28;20033;-94
2021/07/18 08:25:26;;;;;;;0.17;0.17;;;;;;;25.55;50.63;102555.28;5035347;28;20087;-94
2021/07/18 08:27:54;;;;;;;0.00;0.00;;;;;;;25.77;50.76;102561.22;5034777;28;20030;-94
2021/07/18 08:30:21;;;;;;;0.77;0.77;;;;;;;25.67;49.33;102555.44;5034127;28;20040;-94
2021/07/18 08:32:48;;;;;;;0.38;0.38;;;;;;;25.75;49.54;102557.69;5034536;28;20075;-93
2021/07/18 08:35:15;;;;;;;0.05;0.05;;;;;;;25.91;49.45;102554.13;5034331;28;20053;-94
2021/07/18 08:37:43;;;;;;;0.10;0.10;;;;;;;25.89;48.69;102550.59;5033983;28;20073;-94
2021/07/18 08:40:16;;;;;;;0.10;0.10;;;;;;;26.05;49.33;102554.16;5033970;28;20025;-94
2021/07/18 08:42:43;;;;;;;0.10;0.10;;;;;;;26.15;49.52;102552.69;5033893;28;20064;-95
2021/07/18 08:45:13;;;;;;;0.00;0.00;;;;;;;26.20;48.39;102554.28;5033269;28;20095;-93
2021/07/18 08:47:43;;;;;;;0.03;0.03;;;;;;;26.20;48.40;102552.41;5033644;28;20025;-94
2021/07/18 08:50:19;;;;;;;0.10;0.10;;;;;;;26.39;48.29;102556.75;5033185;28;20135;-95
2021/07/18 08:52:56;;;;;;;0.10;0.10;;;;;;;26.40;48.43;102548.50;5033139;28;20526;-95
2021/07/18 08:55:28;;;;;;;0.10;0.10;;;;;;;26.60;48.50;102543.69;5033622;28;20025;-95
2021/07/18 08:58:15;;;;;;;0.43;0.30;;;;;;;26.67;48.04;102546.91;5034243;28;20364;-94
2021/07/18 09:00:43;;;;;;;0.10;0.10;;;;;;;26.78;48.20;102548.03;5032328;28;20060;-93
2021/07/18 09:03:18;;;;;;;0.05;0.05;;;;;;;26.91;47.90;102548.13;5033883;28;20045;-94
2021/07/18 09:05:45;;;;;;;0.10;0.10;;;;;;;26.99;47.65;102542.19;5033746;28;20017;-95
2021/07/18 09:08:23;;;;;;;0.10;0.10;;;;;;;27.03;46.81;102540.16;5033324;28;20079;-95
2021/07/18 09:10:50;;;;;;;0.10;0.10;;;;;;;27.20;46.42;102542.69;5033321;28;20033;-94
2021/07/18 09:13:19;;;;;;;0.08;0.08;;;;;;;27.17;45.35;102542.03;5032906;28;20029;-94
2021/07/18 09:18:36;;;;;;;0.10;0.10;;;;;;;27.37;45.94;102538.88;5070566;28;20893;-94
2021/07/18 09:21:06;;;;;;;;;;;;;;;27.58;44.83;102541.22;5070885;28;20033;-93
2021/07/18 09:23:32;;;;;;;0.00;0.00;;;;;;;27.55;45.50;102544.13;5053659;28;19914;-93
2021/07/18 09:26:20;;;;;;;0.10;0.10;;;;;;;27.64;45.33;102531.75;5050862;28;20029;-93
2021/07/18 09:28:47;;;;;;;0.10;0.10;;;;;;;27.76;45.34;102529.13;5050660;28;20025;-93
2021/07/18 09:31:38;;;;;;;0.10;0.10;;;;;;;27.89;44.57;102533.75;5050567;28;20051;-92
2021/07/18 09:34:12;;;;;;;0.08;0.08;;;;;;;27.86;44.21;102528.47;5050313;28;20582;-93
2021/07/18 09:36:47;;;;;;;0.10;0.10;;;;;;;27.95;44.33;102529.72;5050327;28;20053;-93
2021/07/18 09:39:24;;;;;;;0.20;0.20;;;;;;;27.92;44.19;102523.47;5050561;28;20025;-93
2021/07/18 09:41:57;;;;;;;0.05;0.05;;;;;;;27.97;44.27;102520.47;5050782;28;20041;-94
2021/07/18 09:44:43;;;;;;;0.25;0.20;;;;;;;28.11;43.88;102515.97;5050609;28;20064;-94
2021/07/18 09:47:10;;;;;;;0.10;0.10;;;;;;;28.26;44.32;102520.34;5050889;28;20499;-93
2021/07/18 09:49:37;;;;;;;0.10;0.10;;;;;;;28.38;44.00;102524.09;5051342;28;20037;-94
2021/07/18 09:52:26;;;;;;;0.10;0.10;;;;;;;28.34;43.17;102512.50;5050820;28;20034;-93
2021/07/18 09:54:58;;;;;;;0.40;0.40;;;;;;;28.44;42.87;102522.75;5049988;28;20481;-93
2021/07/18 09:57:28;;;;;;;;;;;;;;;28.69;42.41;102519.22;5050270;28;20037;-93
2021/07/18 09:59:57;;;;;;;0.10;0.10;;;;;;;28.49;42.29;102524.19;5050053;28;19913;-94
2021/07/18 10:02:25;;;;;;;0.10;0.10;;;;;;;28.53;41.81;102519.41;5050428;28;20033;-93
2021/07/18 10:04:53;;;;;;;0.52;0.52;;;;;;;28.58;42.04;102515.34;5049875;28;20036;-92
2021/07/18 10:07:22;;;;;;;0.08;0.08;;;;;;;28.70;42.50;102519.13;5049764;28;20025;-92
2021/07/18 10:09:50;;;;;;;0.13;0.13;;;;;;;28.75;42.37;102520.63;5049895;28;20110;-93
2021/07/18 10:12:26;;;;;;;0.10;0.10;;;;;;;28.83;42.08;102520.97;5050257;28;20036;-93
2021/07/18 10:14:54;;;;;;;0.10;0.10;;;;;;;28.84;41.03;102515.41;5049846;28;20549;-93
2021/07/18 10:17:22;;;;;;;0.00;0.00;;;;;;;28.94;42.35;102529.25;5052150;28;20037;-93
2021/07/18 10:19:48;;;;;;;0.00;0.00;;;;;;;28.87;41.47;102515.19;5057730;28;20026;-92
2021/07/18 10:22:21;;;;;;;0.30;0.30;;;;;;;29.01;41.46;102522.38;5055182;28;20032;-93
2021/07/18 10:24:52;;;;;;;0.30;0.30;;;;;;;29.04;39.97;102519.41;5051483;28;20495;-93
2021/07/18 10:27:21;;;;;;;0.10;0.10;;;;;;;29.11;39.45;102513.50;5049648;28;20033;-93
2021/07/18 10:29:52;;;;;;;0.30;0.30;;;;;;;29.14;39.65;102516.03;5036178;28;20386;-93
2021/07/18 10:32:22;;;;;;;0.10;0.10;;;;;;;29.25;39.96;102513.38;5035792;28;20543;-93
2021/07/18 10:34:53;;;;;;;0.20;0.20;;;;;;;29.36;40.40;102505.28;5036497;28;20501;-93
2021/07/18 10:37:19;;;;;;;0.55;0.55;;;;;;;29.45;41.43;102508.34;5035838;28;20086;-92
2021/07/18 10:39:46;;;;;;;0.25;0.25;;;;;;;29.51;39.93;102507.88;5035981;28;20466;-93
2021/07/18 10:42:34;;;;;;;0.10;0.10;;;;;;;29.44;38.40;102499.25;5035657;28;20025;-92
2021/07/18 10:45:20;;;;;;;0.00;0.00;;;;;;;29.35;36.44;102509.00;5036126;28;20090;-91
2021/07/18 10:47:57;;;;;;;0.93;0.80;;;;;;;29.52;37.24;102502.31;5035797;28;20093;-92
2021/07/18 10:50:52;;;;;;;0.00;0.00;;;;;;;29.60;37.07;102500.84;5035980;28;20045;-92
2021/07/18 10:53:29;;;;;;;0.70;0.38;;;;;;;29.60;37.37;102507.19;5035503;28;20547;-91
2021/07/18 10:56:01;;;;;;;0.50;0.50;;;;;;;29.69;38.08;102495.53;5036092;28;20485;-92
2021/07/18 11:04:27;;;;;;;0.00;0.00;;;;;;;29.87;36.06;102492.44;5089287;28;20520;-92
2021/07/18 11:10:13;;;;;;;0.10;0.10;;;;;;;29.98;36.18;102478.84;5131787;27;20401;-90
2021/07/18 11:12:47;;;;;;;0.10;0.10;;;;;;;29.89;36.99;102487.72;5132023;27;20038;-92
2021/07/18 11:18:02;;;;;;;0.10;0.10;;;;;;;29.95;37.79;102473.59;5090781;27;20417;-92
2021/07/18 11:23:37;;;;;;;0.10;0.10;;;;;;;30.31;36.84;102466.25;5110971;27;20387;-91
2021/07/18 11:31:29;;;;;;;0.20;0.20;;;;;;;30.69;37.73;102463.34;5090927;27;20897;-92
2021/07/18 11:36:54;;;;;;;0.20;0.20;;;;;;;30.83;36.52;102463.09;5089420;28;20471;-92
2021/07/18 11:39:22;;;;;;;1.17;0.75;;;;;;;30.93;36.62;102453.13;5070767;28;20063;-92
2021/07/18 11:41:50;;;;;;;0.32;0.32;;;;;;;30.80;36.00;102452.38;5068988;28;20025;-91
2021/07/18 11:44:21;;;;;;;0.00;0.00;;;;;;;30.78;35.41;102459.84;5050936;28;20029;-90
2021/07/18 11:46:52;;;;;;;0.10;0.10;;;;;;;30.79;35.54;102458.84;5050422;28;20037;-92
2021/07/18 11:49:19;;;;;;;0.40;0.40;;;;;;;30.90;35.96;102457.97;5050566;28;20065;-93
2021/07/18 11:51:47;;;;;;;0.03;0.03;;;;;;;30.68;35.89;102461.59;5050380;28;20049;-91
2021/07/18 11:54:15;;;;;;;0.10;0.10;;;;;;;30.77;35.92;102455.38;5050323;28;20029;-92
2021/07/18 11:56:45;;;;;;;0.10;0.10;;;;;;;31.04;36.31;102451.38;5050431;28;20158;-90
2021/07/18 12:02:00;;;;;;;0.20;0.20;;;;;;;30.85;36.31;102444.66;5062315;28;20919;-90
2021/07/18 12:04:27;;;;;;;0.00;0.00;;;;;;;30.98;36.78;102447.28;5030848;28;20029;-91